Time;durP1;ratioP1;P1;durP2;ratioP2;P2;SDS_P1;SDS_P2;PMS_P1;PMS_P2;Temp;Humidity;BMP_temperature;BMP_pressure;BME280_temperature;BME280_humidity;BME280_pressure;Samples;Min_cycle;Max_cycle;Signal;HPM_P1;HPM_P2
2020/12/11 00:02:23;;;;;;;3.65;2.60;;;18.30;45.10;;;;;;5058396;28;20108;-41
2020/12/11 00:04:49;;;;;;;3.53;2.80;;;18.20;45.00;;;;;;5058611;28;20363;-44
2020/12/11 00:07:14;;;;;;;3.20;2.88;;;18.20;45.00;;;;;;5058724;28;20033;-44
2020/12/11 00:09:40;;;;;;;3.70;2.60;;;18.20;45.00;;;;;;5058167;28;20051;-41
2020/12/11 00:12:05;;;;;;;3.22;2.90;;;18.20;45.00;;;;;;5058617;28;20359;-41
2020/12/11 00:14:31;;;;;;;2.75;2.45;;;18.20;45.00;;;;;;5058649;28;20043;-43
2020/12/11 00:16:56;;;;;;;2.78;2.47;;;18.20;45.00;;;;;;5058127;28;20472;-41
2020/12/11 00:19:22;;;;;;;3.35;2.80;;;18.20;44.90;;;;;;5058294;28;20037;-41
2020/12/11 00:21:49;;;;;;;3.08;2.38;;;18.20;45.60;;;;;;5058279;28;20091;-42
2020/12/11 00:24:15;;;;;;;2.67;2.42;;;18.10;44.90;;;;;;5058322;28;20033;-42
2020/12/11 00:26:40;;;;;;;3.25;2.55;;;18.10;44.90;;;;;;5058319;28;20120;-42
2020/12/11 00:29:06;;;;;;;3.15;2.50;;;18.10;44.90;;;;;;5057970;28;20052;-40
2020/12/11 00:31:32;;;;;;;2.65;2.40;;;18.10;44.90;;;;;;5057911;28;20040;-43
2020/12/11 00:33:57;;;;;;;2.60;2.40;;;18.10;44.90;;;;;;5058097;28;20033;-42
2020/12/11 00:36:27;;;;;;;2.83;2.53;;;18.10;44.90;;;;;;5057811;28;20052;-40
2020/12/11 00:38:53;;;;;;;3.40;2.75;;;18.00;44.80;;;;;;5057951;28;20485;-41
2020/12/11 00:41:19;;;;;;;4.55;2.70;;;18.00;44.80;;;;;;5057743;28;20045;-41
2020/12/11 00:43:45;;;;;;;3.45;2.83;;;18.00;44.80;;;;;;5057535;28;20033;-42
2020/12/11 00:46:11;;;;;;;3.00;2.70;;;18.00;44.80;;;;;;5057678;28;20108;-43
2020/12/11 00:48:37;;;;;;;3.03;2.50;;;18.00;44.80;;;;;;5057723;28;20052;-42
2020/12/11 00:51:03;;;;;;;3.95;2.70;;;18.00;44.80;;;;;;5057849;28;20037;-41
2020/12/11 00:53:28;;;;;;;3.00;2.17;;;17.90;44.80;;;;;;5057281;28;20406;-40
2020/12/11 00:55:54;;;;;;;2.95;2.30;;;17.90;44.80;;;;;;5057778;28;20033;-43
2020/12/11 00:58:19;;;;;;;2.97;2.40;;;17.90;44.80;;;;;;5057282;28;20379;-41
2020/12/11 01:00:45;;;;;;;2.80;2.40;;;17.90;44.80;;;;;;5057125;28;20040;-45
2020/12/11 01:03:10;;;;;;;3.00;2.47;;;17.90;44.80;;;;;;5057559;28;20029;-42
2020/12/11 01:05:36;;;;;;;2.38;2.08;;;17.90;44.80;;;;;;5056979;28;20037;-40
2020/12/11 01:08:04;;;;;;;3.30;2.28;;;17.90;44.80;;;;;;5057100;28;20104;-45
2020/12/11 01:10:30;;;;;;;3.05;2.40;;;17.90;44.80;;;;;;5057710;28;20037;-42
2020/12/11 01:12:55;;;;;;;3.35;2.30;;;17.90;44.80;;;;;;5057310;28;20045;-42
2020/12/11 01:15:22;;;;;;;3.42;2.30;;;17.90;44.80;;;;;;5056800;28;20432;-43
2020/12/11 01:17:47;;;;;;;2.45;2.25;;;17.90;44.80;;;;;;5056833;28;20049;-41
2020/12/11 01:20:13;;;;;;;2.72;2.10;;;17.80;44.80;;;;;;5056931;28;20029;-41
2020/12/11 01:22:38;;;;;;;2.80;2.33;;;17.80;44.80;;;;;;5057193;28;20090;-43
2020/12/11 01:25:04;;;;;;;2.45;2.22;;;17.80;44.80;;;;;;5057618;28;20065;-42
2020/12/11 01:27:29;;;;;;;2.72;2.53;;;17.80;44.80;;;;;;5057372;28;20362;-40
2020/12/11 01:29:55;;;;;;;3.75;2.72;;;17.70;44.70;;;;;;5056754;28;20040;-43
2020/12/11 01:32:20;;;;;;;2.55;2.15;;;17.70;44.70;;;;;;5056985;28;20410;-44
2020/12/11 01:34:46;;;;;;;2.30;2.10;;;17.70;44.70;;;;;;5056877;28;20029;-42
2020/12/11 01:37:12;;;;;;;2.13;1.88;;;17.70;44.70;;;;;;5056549;28;20044;-44
2020/12/11 01:39:37;;;;;;;2.83;2.20;;;17.70;44.70;;;;;;5056820;28;20120;-42
2020/12/11 01:42:09;;;;;;;2.75;2.10;;;17.70;44.70;;;;;;5054369;28;20442;-42
2020/12/11 01:44:35;;;;;;;2.28;2.08;;;17.70;45.40;;;;;;5056298;28;20459;-41
2020/12/11 01:47:01;;;;;;;2.35;2.10;;;17.70;44.70;;;;;;5056665;28;20026;-42
2020/12/11 01:49:26;;;;;;;2.40;2.20;;;17.70;44.80;;;;;;5056678;28;20040;-41
2020/12/11 01:51:52;;;;;;;2.72;2.15;;;17.60;44.70;;;;;;5056564;28;20037;-41
2020/12/11 01:54:17;;;;;;;2.17;1.98;;;17.70;44.80;;;;;;5056637;28;20345;-41
2020/12/11 01:57:00;;;;;;;2.35;1.80;;;17.60;44.70;;;;;;5056529;28;20037;-40
2020/12/11 01:59:42;;;;;;;2.50;2.30;;;17.60;44.70;;;;;;5056779;28;20037;-42
2020/12/11 02:02:09;;;;;;;2.15;1.92;;;17.60;44.70;;;;;;5056005;28;20448;-40
2020/12/11 02:04:36;;;;;;;2.50;2.30;;;17.60;44.70;;;;;;5056309;28;20036;-42
2020/12/11 02:07:03;;;;;;;2.00;1.80;;;17.60;44.70;;;;;;5056264;28;20033;-42
2020/12/11 02:09:32;;;;;;;2.20;1.95;;;17.60;44.70;;;;;;5056116;28;20029;-41
2020/12/11 02:11:59;;;;;;;1.80;1.70;;;17.60;44.70;;;;;;5056434;28;20456;-43
2020/12/11 02:14:24;;;;;;;2.00;1.80;;;17.50;45.30;;;;;;5056727;28;20058;-41
2020/12/11 02:17:07;;;;;;;2.42;2.22;;;17.50;44.70;;;;;;5055354;28;20067;-41
2020/12/11 02:19:33;;;;;;;2.17;1.98;;;17.50;44.70;;;;;;5056208;28;20055;-41
2020/12/11 02:22:00;;;;;;;2.22;1.73;;;17.50;44.60;;;;;;5056133;28;20397;-42
2020/12/11 02:24:25;;;;;;;1.95;1.77;;;17.50;44.70;;;;;;5055497;28;20025;-40
2020/12/11 02:27:02;;;;;;;2.17;1.98;;;17.50;44.70;;;;;;5055658;28;20059;-42
2020/12/11 02:29:28;;;;;;;2.60;2.00;;;17.50;44.70;;;;;;5055928;28;20362;-41
2020/12/11 02:31:54;;;;;;;2.13;1.95;;;17.50;44.70;;;;;;5055578;28;20044;-42
2020/12/11 02:34:20;;;;;;;2.58;1.92;;;17.50;44.70;;;;;;5056036;28;20356;-41
2020/12/11 02:36:46;;;;;;;3.00;2.35;;;17.40;44.60;;;;;;5055155;28;20490;-42
2020/12/11 02:39:12;;;;;;;2.08;1.85;;;17.50;44.70;;;;;;5055813;28;20033;-42
2020/12/11 02:41:38;;;;;;;2.20;2.00;;;17.40;44.70;;;;;;5055646;28;20077;-42
2020/12/11 02:44:03;;;;;;;2.05;1.90;;;17.40;44.60;;;;;;5055575;28;20025;-42
2020/12/11 02:46:29;;;;;;;2.08;1.80;;;17.40;44.60;;;;;;5055611;28;20040;-42
2020/12/11 02:48:55;;;;;;;2.75;2.10;;;17.40;44.60;;;;;;5055596;28;20036;-41
2020/12/11 02:51:21;;;;;;;2.45;2.25;;;17.40;44.60;;;;;;5055632;28;20382;-40
2020/12/11 02:53:49;;;;;;;2.15;1.95;;;17.40;44.60;;;;;;5055547;28;20033;-41
2020/12/11 02:56:18;;;;;;;1.85;1.75;;;17.40;44.60;;;;;;5055280;28;20033;-42
2020/12/11 02:58:44;;;;;;;2.30;2.10;;;17.40;44.70;;;;;;5055403;28;20060;-41
2020/12/11 03:01:09;;;;;;;1.98;1.77;;;17.30;44.60;;;;;;5055437;28;20044;-42
2020/12/11 03:03:35;;;;;;;1.65;1.50;;;17.30;44.60;;;;;;5055286;28;20029;-42
2020/12/11 03:06:00;;;;;;;1.75;1.65;;;17.30;44.60;;;;;;5055319;28;20060;-44
2020/12/11 03:08:25;;;;;;;1.65;1.55;;;17.30;44.60;;;;;;5055517;28;20045;-42
2020/12/11 03:10:51;;;;;;;1.88;1.77;;;17.30;44.60;;;;;;5055133;28;20360;-41
2020/12/11 03:13:16;;;;;;;2.08;1.88;;;17.30;44.60;;;;;;5055177;28;20033;-41
2020/12/11 03:15:42;;;;;;;2.13;1.92;;;17.30;44.60;;;;;;5054689;28;20186;-41
2020/12/11 03:18:07;;;;;;;2.08;1.70;;;17.30;44.60;;;;;;5055130;28;20052;-40
2020/12/11 03:20:33;;;;;;;2.55;1.75;;;17.30;44.70;;;;;;5054831;28;20040;-43
2020/12/11 03:22:58;;;;;;;1.98;1.80;;;17.30;44.70;;;;;;5055436;28;20040;-41
2020/12/11 03:25:24;;;;;;;2.40;2.20;;;17.30;44.70;;;;;;5054906;28;20371;-43
2020/12/11 03:27:49;;;;;;;2.22;2.03;;;17.20;44.60;;;;;;5054962;28;20040;-43
2020/12/11 03:30:15;;;;;;;2.20;2.00;;;17.20;44.60;;;;;;5054391;28;20041;-43
2020/12/11 03:32:41;;;;;;;2.22;1.92;;;17.20;44.60;;;;;;5055090;28;20049;-40
2020/12/11 03:35:06;;;;;;;2.30;2.10;;;17.20;44.60;;;;;;5054692;28;20036;-42
2020/12/11 03:37:32;;;;;;;2.22;2.00;;;17.20;44.60;;;;;;5054635;28;20079;-40
2020/12/11 03:39:58;;;;;;;1.85;1.75;;;17.20;44.60;;;;;;5054680;28;20041;-42
2020/12/11 03:42:23;;;;;;;2.05;1.85;;;17.20;44.60;;;;;;5054694;28;20056;-44
2020/12/11 03:44:49;;;;;;;1.85;1.70;;;17.20;44.60;;;;;;5054693;28;20147;-41
2020/12/11 03:47:14;;;;;;;2.38;2.05;;;17.10;44.60;;;;;;5054838;28;20095;-44
2020/12/11 03:49:40;;;;;;;2.00;1.80;;;17.20;44.70;;;;;;5054758;28;20033;-41
2020/12/11 03:52:05;;;;;;;2.15;1.95;;;17.10;44.60;;;;;;5054660;28;20470;-40
2020/12/11 03:54:31;;;;;;;1.73;1.63;;;17.10;44.60;;;;;;5054611;28;20033;-43
2020/12/11 03:56:56;;;;;;;2.22;2.03;;;17.10;44.60;;;;;;5054733;28;20041;-41
2020/12/11 03:59:22;;;;;;;2.25;1.80;;;17.10;44.60;;;;;;5054777;28;20119;-42
2020/12/11 04:01:47;;;;;;;2.05;1.85;;;17.10;44.60;;;;;;5054192;28;20033;-41
2020/12/11 04:04:13;;;;;;;2.40;1.85;;;17.10;44.60;;;;;;5054379;28;20120;-43
2020/12/11 04:06:38;;;;;;;1.88;1.77;;;17.10;44.60;;;;;;5054496;28;20044;-40
2020/12/11 04:09:04;;;;;;;2.38;1.80;;;17.10;45.00;;;;;;5054413;28;20108;-42
2020/12/11 04:11:29;;;;;;;2.53;1.80;;;17.10;44.60;;;;;;5054678;28;20021;-42
2020/12/11 04:13:55;;;;;;;2.50;2.05;;;17.10;44.60;;;;;;5054614;28;20506;-40
2020/12/11 04:16:21;;;;;;;1.95;1.75;;;17.00;44.50;;;;;;5054385;28;20037;-41
2020/12/11 04:18:46;;;;;;;1.83;1.65;;;17.00;44.50;;;;;;5054680;28;20044;-42
2020/12/11 04:21:13;;;;;;;2.05;1.92;;;17.00;44.50;;;;;;5053909;28;20490;-43
2020/12/11 04:23:39;;;;;;;2.33;2.10;;;17.00;44.60;;;;;;5054506;28;20083;-40
2020/12/11 04:26:05;;;;;;;2.13;1.88;;;17.00;44.50;;;;;;5054459;28;20039;-41
2020/12/11 04:28:30;;;;;;;1.88;1.67;;;17.00;44.50;;;;;;5054540;28;20104;-41
2020/12/11 04:30:56;;;;;;;1.67;1.50;;;17.00;44.60;;;;;;5054064;28;20040;-42
2020/12/11 04:33:21;;;;;;;1.98;1.77;;;17.00;44.50;;;;;;5053957;28;20461;-42
2020/12/11 04:35:47;;;;;;;1.63;1.52;;;17.00;44.50;;;;;;5053807;28;20048;-40
2020/12/11 04:38:12;;;;;;;1.85;1.70;;;17.00;44.50;;;;;;5053605;28;20151;-41
2020/12/11 04:40:38;;;;;;;1.70;1.60;;;17.00;44.50;;;;;;5055420;28;20040;-41
2020/12/11 04:43:04;;;;;;;1.77;1.60;;;17.00;44.50;;;;;;5055973;28;20072;-42
2020/12/11 04:45:31;;;;;;;2.00;1.77;;;17.00;44.50;;;;;;5058044;28;20090;-43
2020/12/11 04:47:56;;;;;;;2.00;1.80;;;17.00;44.50;;;;;;5057767;28;20028;-43
2020/12/11 04:50:22;;;;;;;2.13;1.92;;;16.90;44.50;;;;;;5057557;28;20047;-41
2020/12/11 04:52:49;;;;;;;1.70;1.60;;;16.90;44.50;;;;;;5057745;28;20037;-40
2020/12/11 04:55:20;;;;;;;1.50;1.40;;;16.90;44.50;;;;;;5057672;28;20029;-42
2020/12/11 04:57:50;;;;;;;2.22;2.03;;;16.90;44.50;;;;;;5057717;28;20041;-40
2020/12/11 05:00:19;;;;;;;1.83;1.73;;;16.90;44.50;;;;;;5057984;28;20037;-41
2020/12/11 05:02:46;;;;;;;1.73;1.45;;;16.90;44.50;;;;;;5057032;28;20363;-42
2020/12/11 05:05:13;;;;;;;1.70;1.60;;;16.90;44.50;;;;;;5057596;28;20029;-40
2020/12/11 05:07:39;;;;;;;2.05;1.63;;;16.90;44.50;;;;;;5057677;28;20037;-42
2020/12/11 05:10:06;;;;;;;1.60;1.50;;;16.80;44.50;;;;;;5057974;28;20107;-40
2020/12/11 05:12:33;;;;;;;2.08;1.88;;;16.80;44.50;;;;;;5057913;28;20040;-40
2020/12/11 05:15:04;;;;;;;1.80;1.60;;;16.80;44.50;;;;;;5057068;28;20115;-41
2020/12/11 05:17:32;;;;;;;1.95;1.77;;;16.80;44.50;;;;;;5057312;28;20041;-42
2020/12/11 05:19:59;;;;;;;2.28;1.90;;;16.80;44.50;;;;;;5057227;28;20037;-41
2020/12/11 05:22:35;;;;;;;1.90;1.80;;;16.80;44.50;;;;;;5057314;28;20048;-41
2020/12/11 05:25:03;;;;;;;2.00;1.80;;;16.80;44.50;;;;;;5057452;28;20167;-41
2020/12/11 05:27:31;;;;;;;1.60;1.50;;;16.80;44.50;;;;;;5056767;28;20418;-41
2020/12/11 05:29:58;;;;;;;2.00;1.80;;;16.80;44.50;;;;;;5056850;28;20033;-42
2020/12/11 05:32:43;;;;;;;2.33;2.08;;;16.80;44.50;;;;;;5057029;28;20126;-42
2020/12/11 05:35:14;;;;;;;1.75;1.65;;;16.80;44.50;;;;;;5056838;28;20029;-41
2020/12/11 05:37:52;;;;;;;1.60;1.50;;;16.80;44.50;;;;;;5056716;28;20367;-40
2020/12/11 05:40:25;;;;;;;2.10;1.90;;;16.70;44.40;;;;;;5057085;28;20122;-40
2020/12/11 05:43:15;;;;;;;1.60;1.50;;;16.80;44.50;;;;;;5057061;28;20064;-40
2020/12/11 05:45:48;;;;;;;2.22;1.60;;;16.70;44.40;;;;;;5057113;28;20021;-42
2020/12/11 05:48:14;;;;;;;1.95;1.75;;;16.70;44.50;;;;;;5056721;28;20029;-41
2020/12/11 05:50:39;;;;;;;2.00;1.75;;;16.70;44.50;;;;;;5056435;28;20040;-42
2020/12/11 05:53:05;;;;;;;2.63;1.85;;;16.70;44.50;;;;;;5056479;28;20037;-41
2020/12/11 05:55:30;;;;;;;1.95;1.85;;;16.70;44.50;;;;;;5057028;28;20356;-42
2020/12/11 05:57:58;;;;;;;1.60;1.50;;;16.70;44.50;;;;;;5056415;28;20135;-42
2020/12/11 06:00:24;;;;;;;1.48;1.38;;;16.70;44.50;;;;;;5057109;28;20029;-41
2020/12/11 06:02:51;;;;;;;1.90;1.80;;;16.70;44.50;;;;;;5056562;28;20025;-42
2020/12/11 06:05:19;;;;;;;1.63;1.52;;;16.70;44.50;;;;;;5056233;28;20029;-42
2020/12/11 06:07:47;;;;;;;1.90;1.80;;;16.60;44.40;;;;;;5056589;28;20029;-41
2020/12/11 06:10:14;;;;;;;1.98;1.77;;;16.60;44.50;;;;;;5055951;28;20439;-40
2020/12/11 06:12:41;;;;;;;1.70;1.60;;;16.60;44.50;;;;;;5056034;28;20028;-40
2020/12/11 06:15:15;;;;;;;1.65;1.55;;;16.70;44.50;;;;;;5056489;28;20025;-42
2020/12/11 06:17:53;;;;;;;2.17;1.98;;;16.60;44.40;;;;;;5056223;28;20043;-41
2020/12/11 06:20:20;;;;;;;2.17;1.80;;;16.70;44.50;;;;;;5056098;28;20037;-41
2020/12/11 06:22:45;;;;;;;2.08;1.88;;;16.60;44.50;;;;;;5056292;28;20029;-41
2020/12/11 06:25:30;;;;;;;1.70;1.60;;;16.60;44.50;;;;;;5055988;28;20032;-42
2020/12/11 06:27:58;;;;;;;2.08;1.80;;;16.60;44.50;;;;;;5055986;28;20040;-40
2020/12/11 06:30:29;;;;;;;1.77;1.67;;;16.60;45.10;;;;;;5055728;28;20112;-40
2020/12/11 06:32:57;;;;;;;2.13;1.92;;;16.60;44.50;;;;;;5056262;28;20344;-41
2020/12/11 06:35:23;;;;;;;2.15;1.95;;;16.60;44.50;;;;;;5055853;28;20041;-40
2020/12/11 06:37:48;;;;;;;1.92;1.83;;;16.60;44.50;;;;;;5055619;28;20037;-42
2020/12/11 06:40:14;;;;;;;1.90;1.80;;;16.60;44.50;;;;;;5055872;28;20108;-41
2020/12/11 06:42:42;;;;;;;1.80;1.60;;;16.60;44.60;;;;;;5055345;28;20059;-41
2020/12/11 06:45:24;;;;;;;1.90;1.80;;;16.60;44.50;;;;;;5055441;28;20041;-41
2020/12/11 06:47:58;;;;;;;1.83;1.73;;;16.60;44.50;;;;;;5055292;28;20432;-41
2020/12/11 06:50:31;;;;;;;1.73;1.63;;;16.50;44.50;;;;;;5055577;28;20363;-41
2020/12/11 06:52:57;;;;;;;1.55;1.45;;;16.50;44.50;;;;;;5055629;28;20325;-41
2020/12/11 06:55:52;;;;;;;1.98;1.77;;;16.50;44.50;;;;;;5054951;28;20108;-41
2020/12/11 06:58:19;;;;;;;1.83;1.73;;;16.50;44.50;;;;;;5055323;28;20082;-41
2020/12/11 07:00:52;;;;;;;1.60;1.50;;;16.50;44.50;;;;;;5055397;28;20316;-42
2020/12/11 07:03:19;;;;;;;2.13;1.88;;;16.50;44.50;;;;;;5054432;28;20537;-41
2020/12/11 07:05:45;;;;;;;2.08;1.85;;;16.50;44.50;;;;;;5055483;28;20138;-43
2020/12/11 07:08:15;;;;;;;2.15;1.88;;;16.50;44.60;;;;;;5055423;28;20040;-40
2020/12/11 07:10:42;;;;;;;1.73;1.60;;;16.50;44.60;;;;;;5055192;28;20025;-40
2020/12/11 07:13:09;;;;;;;1.67;1.58;;;16.50;44.60;;;;;;5055335;28;20095;-43
2020/12/11 07:15:35;;;;;;;1.63;1.52;;;16.50;44.60;;;;;;5054984;28;20048;-40
2020/12/11 07:18:02;;;;;;;1.58;1.48;;;16.50;44.60;;;;;;5054968;28;20037;-40
2020/12/11 07:20:28;;;;;;;1.65;1.55;;;16.50;44.60;;;;;;5055207;28;20116;-42
2020/12/11 07:22:54;;;;;;;1.85;1.63;;;16.50;44.60;;;;;;5055045;28;20423;-41
2020/12/11 07:25:21;;;;;;;2.22;1.73;;;16.50;44.60;;;;;;5055395;28;20044;-44
2020/12/11 07:28:03;;;;;;;1.73;1.60;;;16.40;44.50;;;;;;5054602;28;20041;-41
2020/12/11 07:30:29;;;;;;;1.65;1.55;;;16.50;44.60;;;;;;5054923;28;20029;-43
2020/12/11 07:32:55;;;;;;;1.73;1.63;;;16.40;44.50;;;;;;5054579;28;20045;-40
2020/12/11 07:35:22;;;;;;;1.50;1.40;;;16.40;44.50;;;;;;5071182;28;20336;-40
2020/12/11 07:37:52;;;;;;;1.80;1.70;;;16.40;44.50;;;;;;5054501;28;20136;-40
